sensor_id;sensor_type;location;lat;lon;timestamp;temperature;humidity
69776;DHT22;57049;51.450;-2.516;2023-12-20T00:01:23;6.03;99.01
69776;DHT22;57049;51.450;-2.516;2023-12-20T00:04:12;6.04;98.95
69776;DHT22;57049;51.450;-2.516;2023-12-20T00:06:40;6.07;98.79
69776;DHT22;57049;51.450;-2.516;2023-12-20T00:09:08;6.07;98.74
69776;DHT22;57049;51.450;-2.516;2023-12-20T00:11:36;6.03;98.69
69776;DHT22;57049;51.450;-2.516;2023-12-20T00:14:02;6.03;98.72
69776;DHT22;57049;51.450;-2.516;2023-12-20T00:16:28;5.98;98.67
69776;DHT22;57049;51.450;-2.516;2023-12-20T00:18:53;5.96;98.81
69776;DHT22;57049;51.450;-2.516;2023-12-20T00:21:19;5.94;98.68
69776;DHT22;57049;51.450;-2.516;2023-12-20T00:23:50;5.90;98.81
69776;DHT22;57049;51.450;-2.516;2023-12-20T00:26:21;5.83;98.92
69776;DHT22;57049;51.450;-2.516;2023-12-20T00:28:49;5.78;98.98
69776;DHT22;57049;51.450;-2.516;2023-12-20T00:31:15;5.81;98.91
69776;DHT22;57049;51.450;-2.516;2023-12-20T00:33:44;5.80;98.94
69776;DHT22;57049;51.450;-2.516;2023-12-20T00:36:17;5.87;98.66
69776;DHT22;57049;51.450;-2.516;2023-12-20T00:38:48;5.85;98.78
69776;DHT22;57049;51.450;-2.516;2023-12-20T00:41:16;5.78;98.90
69776;DHT22;57049;51.450;-2.516;2023-12-20T00:43:47;5.76;99.02
69776;DHT22;57049;51.450;-2.516;2023-12-20T00:46:15;5.77;99.04
69776;DHT22;57049;51.450;-2.516;2023-12-20T00:49:10;5.74;99.21
69776;DHT22;57049;51.450;-2.516;2023-12-20T00:51:44;5.78;99.21
69776;DHT22;57049;51.450;-2.516;2023-12-20T00:54:12;5.81;99.10
69776;DHT22;57049;51.450;-2.516;2023-12-20T00:56:40;5.76;99.27
69776;DHT22;57049;51.450;-2.516;2023-12-20T00:59:09;5.78;99.34
69776;DHT22;57049;51.450;-2.516;2023-12-20T01:01:34;5.77;99.36
69776;DHT22;57049;51.450;-2.516;2023-12-20T01:04:00;5.71;99.38
69776;DHT22;57049;51.450;-2.516;2023-12-20T01:06:31;5.60;99.60
69776;DHT22;57049;51.450;-2.516;2023-12-20T01:11:44;5.63;99.69
69776;DHT22;57049;51.450;-2.516;2023-12-20T01:14:12;5.69;99.65
69776;DHT22;57049;51.450;-2.516;2023-12-20T01:16:42;5.69;99.73
69776;DHT22;57049;51.450;-2.516;2023-12-20T01:19:08;5.66;99.64
69776;DHT22;57049;51.450;-2.516;2023-12-20T01:21:33;5.67;99.60
69776;DHT22;57049;51.450;-2.516;2023-12-20T01:23:59;5.66;99.61
69776;DHT22;57049;51.450;-2.516;2023-12-20T01:26:24;5.66;99.61
69776;DHT22;57049;51.450;-2.516;2023-12-20T01:29:00;5.66;99.70
69776;DHT22;57049;51.450;-2.516;2023-12-20T01:31:26;5.63;99.63
69776;DHT22;57049;51.450;-2.516;2023-12-20T01:33:55;5.66;99.60
69776;DHT22;57049;51.450;-2.516;2023-12-20T01:36:39;5.71;99.52
69776;DHT22;57049;51.450;-2.516;2023-12-20T01:39:04;5.74;99.47
69776;DHT22;57049;51.450;-2.516;2023-12-20T01:41:30;5.77;99.31
69776;DHT22;57049;51.450;-2.516;2023-12-20T01:43:55;5.77;99.09
69776;DHT22;57049;51.450;-2.516;2023-12-20T01:46:21;5.78;99.16
69776;DHT22;57049;51.450;-2.516;2023-12-20T01:48:48;5.80;98.68
69776;DHT22;57049;51.450;-2.516;2023-12-20T01:51:16;5.78;98.73
69776;DHT22;57049;51.450;-2.516;2023-12-20T01:53:43;5.81;98.78
69776;DHT22;57049;51.450;-2.516;2023-12-20T01:56:09;5.93;98.31
69776;DHT22;57049;51.450;-2.516;2023-12-20T01:58:39;6.00;98.14
69776;DHT22;57049;51.450;-2.516;2023-12-20T02:01:08;6.00;98.21
69776;DHT22;57049;51.450;-2.516;2023-12-20T02:03:34;6.04;97.99
69776;DHT22;57049;51.450;-2.516;2023-12-20T02:06:04;6.13;97.67
69776;DHT22;57049;51.450;-2.516;2023-12-20T02:08:30;6.18;97.53
69776;DHT22;57049;51.450;-2.516;2023-12-20T02:10:56;6.41;96.90
69776;DHT22;57049;51.450;-2.516;2023-12-20T02:13:22;6.44;96.59
69776;DHT22;57049;51.450;-2.516;2023-12-20T02:15:47;6.39;96.45
69776;DHT22;57049;51.450;-2.516;2023-12-20T02:18:13;6.42;96.24
69776;DHT22;57049;51.450;-2.516;2023-12-20T02:20:41;6.41;96.12
69776;DHT22;57049;51.450;-2.516;2023-12-20T02:23:16;6.39;95.96
69776;DHT22;57049;51.450;-2.516;2023-12-20T02:25:42;6.37;96.01
69776;DHT22;57049;51.450;-2.516;2023-12-20T02:28:07;6.35;95.94
69776;DHT22;57049;51.450;-2.516;2023-12-20T02:30:33;6.29;95.99
69776;DHT22;57049;51.450;-2.516;2023-12-20T02:32:59;6.34;96.17
69776;DHT22;57049;51.450;-2.516;2023-12-20T02:35:26;6.44;96.03
69776;DHT22;57049;51.450;-2.516;2023-12-20T02:37:51;6.53;95.78
69776;DHT22;57049;51.450;-2.516;2023-12-20T02:40:17;6.59;95.95
69776;DHT22;57049;51.450;-2.516;2023-12-20T02:42:42;6.61;95.86
69776;DHT22;57049;51.450;-2.516;2023-12-20T02:45:08;6.73;95.57
69776;DHT22;57049;51.450;-2.516;2023-12-20T02:47:34;6.82;95.12
69776;DHT22;57049;51.450;-2.516;2023-12-20T02:49:59;6.83;95.19
69776;DHT22;57049;51.450;-2.516;2023-12-20T02:52:25;6.88;94.97
69776;DHT22;57049;51.450;-2.516;2023-12-20T02:54:50;6.86;95.15
69776;DHT22;57049;51.450;-2.516;2023-12-20T02:57:17;6.93;95.03
69776;DHT22;57049;51.450;-2.516;2023-12-20T02:59:42;6.92;95.22
69776;DHT22;57049;51.450;-2.516;2023-12-20T03:02:08;6.96;94.97
69776;DHT22;57049;51.450;-2.516;2023-12-20T03:04:33;7.03;95.05
69776;DHT22;57049;51.450;-2.516;2023-12-20T03:06:59;7.12;94.64
69776;DHT22;57049;51.450;-2.516;2023-12-20T03:09:24;7.14;94.69
69776;DHT22;57049;51.450;-2.516;2023-12-20T03:11:50;7.20;94.52
69776;DHT22;57049;51.450;-2.516;2023-12-20T03:14:15;7.26;94.30
69776;DHT22;57049;51.450;-2.516;2023-12-20T03:16:40;7.31;94.20
69776;DHT22;57049;51.450;-2.516;2023-12-20T03:19:06;7.31;94.17
69776;DHT22;57049;51.450;-2.516;2023-12-20T03:21:31;7.35;93.92
69776;DHT22;57049;51.450;-2.516;2023-12-20T03:23:57;7.33;94.16
69776;DHT22;57049;51.450;-2.516;2023-12-20T03:26:23;7.31;94.05
69776;DHT22;57049;51.450;-2.516;2023-12-20T03:28:48;7.33;94.26
69776;DHT22;57049;51.450;-2.516;2023-12-20T03:31:14;7.35;94.25
69776;DHT22;57049;51.450;-2.516;2023-12-20T03:33:39;7.35;94.48
69776;DHT22;57049;51.450;-2.516;2023-12-20T03:36:05;7.33;94.79
69776;DHT22;57049;51.450;-2.516;2023-12-20T03:38:30;7.33;94.89
69776;DHT22;57049;51.450;-2.516;2023-12-20T03:40:56;7.27;95.09
69776;DHT22;57049;51.450;-2.516;2023-12-20T03:43:21;7.26;95.33
69776;DHT22;57049;51.450;-2.516;2023-12-20T03:45:47;7.17;95.51
69776;DHT22;57049;51.450;-2.516;2023-12-20T03:48:12;7.17;95.58
69776;DHT22;57049;51.450;-2.516;2023-12-20T03:50:38;7.17;95.71
69776;DHT22;57049;51.450;-2.516;2023-12-20T03:53:03;7.09;95.94
69776;DHT22;57049;51.450;-2.516;2023-12-20T03:55:29;7.09;96.12
69776;DHT22;57049;51.450;-2.516;2023-12-20T03:57:54;7.10;96.15
69776;DHT22;57049;51.450;-2.516;2023-12-20T04:00:20;7.10;96.20
69776;DHT22;57049;51.450;-2.516;2023-12-20T04:02:45;7.09;96.36
69776;DHT22;57049;51.450;-2.516;2023-12-20T04:05:11;7.17;96.20
69776;DHT22;57049;51.450;-2.516;2023-12-20T04:07:36;7.20;96.31
69776;DHT22;57049;51.450;-2.516;2023-12-20T04:10:02;7.22;96.08
69776;DHT22;57049;51.450;-2.516;2023-12-20T04:12:29;7.27;96.06
69776;DHT22;57049;51.450;-2.516;2023-12-20T04:14:54;7.26;96.13
69776;DHT22;57049;51.450;-2.516;2023-12-20T04:17:20;7.31;96.06
69776;DHT22;57049;51.450;-2.516;2023-12-20T04:19:45;7.37;96.00
69776;DHT22;57049;51.450;-2.516;2023-12-20T04:22:11;7.37;96.03
69776;DHT22;57049;51.450;-2.516;2023-12-20T04:24:36;7.40;96.10
69776;DHT22;57049;51.450;-2.516;2023-12-20T04:27:02;7.41;96.04
69776;DHT22;57049;51.450;-2.516;2023-12-20T04:29:27;7.43;96.10
69776;DHT22;57049;51.450;-2.516;2023-12-20T04:31:53;7.41;96.25
69776;DHT22;57049;51.450;-2.516;2023-12-20T04:34:18;7.43;96.33
69776;DHT22;57049;51.450;-2.516;2023-12-20T04:36:44;7.44;96.50
69776;DHT22;57049;51.450;-2.516;2023-12-20T04:39:11;7.47;96.48
69776;DHT22;57049;51.450;-2.516;2023-12-20T04:41:36;7.53;96.60
69776;DHT22;57049;51.450;-2.516;2023-12-20T04:44:01;7.57;96.56
69776;DHT22;57049;51.450;-2.516;2023-12-20T04:46:27;7.54;96.69
69776;DHT22;57049;51.450;-2.516;2023-12-20T04:48:52;7.60;96.82
69776;DHT22;57049;51.450;-2.516;2023-12-20T04:51:18;7.71;96.60
69776;DHT22;57049;51.450;-2.516;2023-12-20T04:53:43;7.77;96.73
69776;DHT22;57049;51.450;-2.516;2023-12-20T04:56:09;7.85;96.54
69776;DHT22;57049;51.450;-2.516;2023-12-20T04:58:34;7.86;96.47
69776;DHT22;57049;51.450;-2.516;2023-12-20T05:01:00;7.89;96.17
69776;DHT22;57049;51.450;-2.516;2023-12-20T05:03:26;7.84;96.40
69776;DHT22;57049;51.450;-2.516;2023-12-20T05:05:51;7.89;96.07
69776;DHT22;57049;51.450;-2.516;2023-12-20T05:08:16;7.91;96.22
69776;DHT22;57049;51.450;-2.516;2023-12-20T05:10:42;7.94;95.88
69776;DHT22;57049;51.450;-2.516;2023-12-20T05:13:07;7.95;95.87
69776;DHT22;57049;51.450;-2.516;2023-12-20T05:15:33;8.05;95.45
69776;DHT22;57049;51.450;-2.516;2023-12-20T05:17:58;8.03;95.38
69776;DHT22;57049;51.450;-2.516;2023-12-20T05:20:24;8.07;95.36
69776;DHT22;57049;51.450;-2.516;2023-12-20T05:22:49;8.10;95.07
69776;DHT22;57049;51.450;-2.516;2023-12-20T05:25:15;8.12;95.18
69776;DHT22;57049;51.450;-2.516;2023-12-20T05:27:40;8.13;95.19
69776;DHT22;57049;51.450;-2.516;2023-12-20T05:30:06;8.06;95.35
69776;DHT22;57049;51.450;-2.516;2023-12-20T05:32:32;8.03;95.48
69776;DHT22;57049;51.450;-2.516;2023-12-20T05:34:57;8.02;95.58
69776;DHT22;57049;51.450;-2.516;2023-12-20T05:37:23;7.95;95.68
69776;DHT22;57049;51.450;-2.516;2023-12-20T05:39:48;7.92;95.90
69776;DHT22;57049;51.450;-2.516;2023-12-20T05:42:15;7.85;96.15
69776;DHT22;57049;51.450;-2.516;2023-12-20T05:44:40;7.86;96.48
69776;DHT22;57049;51.450;-2.516;2023-12-20T05:47:06;7.86;96.80
69776;DHT22;57049;51.450;-2.516;2023-12-20T05:49:31;7.88;96.85
69776;DHT22;57049;51.450;-2.516;2023-12-20T05:51:57;7.88;97.04
69776;DHT22;57049;51.450;-2.516;2023-12-20T05:54:22;7.88;96.92
69776;DHT22;57049;51.450;-2.516;2023-12-20T05:56:48;7.89;96.93
69776;DHT22;57049;51.450;-2.516;2023-12-20T05:59:13;7.96;96.84
69776;DHT22;57049;51.450;-2.516;2023-12-20T06:01:39;7.96;96.73
69776;DHT22;57049;51.450;-2.516;2023-12-20T06:04:04;7.95;96.83
69776;DHT22;57049;51.450;-2.516;2023-12-20T06:06:30;7.99;96.78
69776;DHT22;57049;51.450;-2.516;2023-12-20T06:08:56;7.96;96.71
69776;DHT22;57049;51.450;-2.516;2023-12-20T06:11:21;8.01;96.63
69776;DHT22;57049;51.450;-2.516;2023-12-20T06:13:47;8.02;96.52
69776;DHT22;57049;51.450;-2.516;2023-12-20T06:16:14;7.96;96.54
69776;DHT22;57049;51.450;-2.516;2023-12-20T06:18:40;7.94;96.62
69776;DHT22;57049;51.450;-2.516;2023-12-20T06:21:05;7.98;96.56
69776;DHT22;57049;51.450;-2.516;2023-12-20T06:23:32;7.98;96.43
69776;DHT22;57049;51.450;-2.516;2023-12-20T06:25:57;7.98;96.55
69776;DHT22;57049;51.450;-2.516;2023-12-20T06:28:23;7.95;96.75
69776;DHT22;57049;51.450;-2.516;2023-12-20T06:30:48;7.91;96.88
69776;DHT22;57049;51.450;-2.516;2023-12-20T06:33:15;7.89;97.01
69776;DHT22;57049;51.450;-2.516;2023-12-20T06:35:40;7.88;97.16
69776;DHT22;57049;51.450;-2.516;2023-12-20T06:38:06;7.94;97.29
69776;DHT22;57049;51.450;-2.516;2023-12-20T06:40:31;7.94;97.42
69776;DHT22;57049;51.450;-2.516;2023-12-20T06:42:57;7.96;97.49
69776;DHT22;57049;51.450;-2.516;2023-12-20T06:45:22;7.98;97.50
69776;DHT22;57049;51.450;-2.516;2023-12-20T06:47:47;8.01;97.36
69776;DHT22;57049;51.450;-2.516;2023-12-20T06:50:13;8.09;97.29
69776;DHT22;57049;51.450;-2.516;2023-12-20T06:52:39;8.12;97.24
69776;DHT22;57049;51.450;-2.516;2023-12-20T06:55:05;8.07;97.21
69776;DHT22;57049;51.450;-2.516;2023-12-20T06:57:30;7.99;97.35
69776;DHT22;57049;51.450;-2.516;2023-12-20T06:59:56;8.01;97.48
69776;DHT22;57049;51.450;-2.516;2023-12-20T07:02:23;8.03;97.55
69776;DHT22;57049;51.450;-2.516;2023-12-20T07:04:48;7.99;97.82
69776;DHT22;57049;51.450;-2.516;2023-12-20T07:07:14;8.01;97.94
69776;DHT22;57049;51.450;-2.516;2023-12-20T07:09:39;8.03;98.07
69776;DHT22;57049;51.450;-2.516;2023-12-20T07:12:07;8.10;98.06
69776;DHT22;57049;51.450;-2.516;2023-12-20T07:14:33;8.07;98.13
69776;DHT22;57049;51.450;-2.516;2023-12-20T07:16:58;8.16;98.06
69776;DHT22;57049;51.450;-2.516;2023-12-20T07:19:24;8.19;98.01
69776;DHT22;57049;51.450;-2.516;2023-12-20T07:21:49;8.28;97.92
69776;DHT22;57049;51.450;-2.516;2023-12-20T07:24:15;8.33;97.95
69776;DHT22;57049;51.450;-2.516;2023-12-20T07:26:43;8.29;97.92
69776;DHT22;57049;51.450;-2.516;2023-12-20T07:29:09;8.30;97.88
69776;DHT22;57049;51.450;-2.516;2023-12-20T07:31:34;8.39;97.90
69776;DHT22;57049;51.450;-2.516;2023-12-20T07:34:00;8.39;97.87
69776;DHT22;57049;51.450;-2.516;2023-12-20T07:36:25;8.36;97.95
69776;DHT22;57049;51.450;-2.516;2023-12-20T07:38:51;8.37;97.92
69776;DHT22;57049;51.450;-2.516;2023-12-20T07:41:16;8.40;97.88
69776;DHT22;57049;51.450;-2.516;2023-12-20T07:43:42;8.46;97.82
69776;DHT22;57049;51.450;-2.516;2023-12-20T07:46:08;8.47;97.80
69776;DHT22;57049;51.450;-2.516;2023-12-20T07:48:35;8.49;97.71
69776;DHT22;57049;51.450;-2.516;2023-12-20T07:51:01;8.52;97.55
69776;DHT22;57049;51.450;-2.516;2023-12-20T07:53:26;8.57;97.55
69776;DHT22;57049;51.450;-2.516;2023-12-20T07:55:52;8.59;97.43
69776;DHT22;57049;51.450;-2.516;2023-12-20T07:58:18;8.57;97.28
69776;DHT22;57049;51.450;-2.516;2023-12-20T08:00:43;8.50;97.41
69776;DHT22;57049;51.450;-2.516;2023-12-20T08:03:09;8.47;97.40
69776;DHT22;57049;51.450;-2.516;2023-12-20T08:05:35;8.45;97.40
69776;DHT22;57049;51.450;-2.516;2023-12-20T08:08:03;8.35;97.49
69776;DHT22;57049;51.450;-2.516;2023-12-20T08:10:28;8.30;97.65
69776;DHT22;57049;51.450;-2.516;2023-12-20T08:12:55;8.28;97.72
69776;DHT22;57049;51.450;-2.516;2023-12-20T08:15:20;8.28;97.82
69776;DHT22;57049;51.450;-2.516;2023-12-20T08:17:46;8.24;97.78
69776;DHT22;57049;51.450;-2.516;2023-12-20T08:20:14;8.33;97.70
69776;DHT22;57049;51.450;-2.516;2023-12-20T08:22:40;8.28;97.79
69776;DHT22;57049;51.450;-2.516;2023-12-20T08:25:05;8.32;97.59
69776;DHT22;57049;51.450;-2.516;2023-12-20T08:27:31;8.30;97.58
69776;DHT22;57049;51.450;-2.516;2023-12-20T08:29:57;8.30;97.50
69776;DHT22;57049;51.450;-2.516;2023-12-20T08:32:25;8.32;97.57
69776;DHT22;57049;51.450;-2.516;2023-12-20T08:34:51;8.35;97.73
69776;DHT22;57049;51.450;-2.516;2023-12-20T08:37:17;8.39;97.96
69776;DHT22;57049;51.450;-2.516;2023-12-20T08:39:43;8.45;97.98
69776;DHT22;57049;51.450;-2.516;2023-12-20T08:42:09;8.47;97.95
69776;DHT22;57049;51.450;-2.516;2023-12-20T08:44:35;8.47;97.95
69776;DHT22;57049;51.450;-2.516;2023-12-20T08:47:03;8.47;98.04
69776;DHT22;57049;51.450;-2.516;2023-12-20T08:49:28;8.52;98.02
69776;DHT22;57049;51.450;-2.516;2023-12-20T08:51:57;8.57;98.04
69776;DHT22;57049;51.450;-2.516;2023-12-20T08:54:23;8.61;98.01
69776;DHT22;57049;51.450;-2.516;2023-12-20T08:56:48;8.66;98.02
69776;DHT22;57049;51.450;-2.516;2023-12-20T08:59:14;8.70;97.97
69776;DHT22;57049;51.450;-2.516;2023-12-20T09:01:39;8.77;97.87
69776;DHT22;57049;51.450;-2.516;2023-12-20T09:04:05;8.85;97.83
69776;DHT22;57049;51.450;-2.516;2023-12-20T09:06:32;8.92;97.90
69776;DHT22;57049;51.450;-2.516;2023-12-20T09:09:00;8.91;97.93
69776;DHT22;57049;51.450;-2.516;2023-12-20T09:11:26;8.98;97.78
69776;DHT22;57049;51.450;-2.516;2023-12-20T09:13:54;9.00;97.75
69776;DHT22;57049;51.450;-2.516;2023-12-20T09:16:20;8.94;97.85
69776;DHT22;57049;51.450;-2.516;2023-12-20T09:18:48;8.96;97.83
69776;DHT22;57049;51.450;-2.516;2023-12-20T09:21:14;8.90;97.76
69776;DHT22;57049;51.450;-2.516;2023-12-20T09:23:39;8.87;97.95
69776;DHT22;57049;51.450;-2.516;2023-12-20T09:26:05;8.87;98.17
69776;DHT22;57049;51.450;-2.516;2023-12-20T09:28:31;8.92;98.16
69776;DHT22;57049;51.450;-2.516;2023-12-20T09:31:00;8.92;98.25
69776;DHT22;57049;51.450;-2.516;2023-12-20T09:33:26;8.91;98.39
69776;DHT22;57049;51.450;-2.516;2023-12-20T09:35:52;8.91;98.50
69776;DHT22;57049;51.450;-2.516;2023-12-20T09:38:17;8.97;98.38
69776;DHT22;57049;51.450;-2.516;2023-12-20T09:40:43;9.04;98.09
69776;DHT22;57049;51.450;-2.516;2023-12-20T09:43:14;9.12;97.86
69776;DHT22;57049;51.450;-2.516;2023-12-20T09:45:42;9.14;97.75
69776;DHT22;57049;51.450;-2.516;2023-12-20T09:48:10;9.21;97.62
69776;DHT22;57049;51.450;-2.516;2023-12-20T09:50:39;9.36;97.32
69776;DHT22;57049;51.450;-2.516;2023-12-20T09:53:08;9.45;97.00
69776;DHT22;57049;51.450;-2.516;2023-12-20T09:55:36;9.50;96.93
69776;DHT22;57049;51.450;-2.516;2023-12-20T09:58:02;9.55;96.69
69776;DHT22;57049;51.450;-2.516;2023-12-20T10:00:27;9.59;96.79
69776;DHT22;57049;51.450;-2.516;2023-12-20T10:02:57;9.62;96.66
69776;DHT22;57049;51.450;-2.516;2023-12-20T10:05:29;9.52;96.79
69776;DHT22;57049;51.450;-2.516;2023-12-20T10:07:55;9.53;96.87
69776;DHT22;57049;51.450;-2.516;2023-12-20T10:10:21;9.52;97.01
69776;DHT22;57049;51.450;-2.516;2023-12-20T10:13:07;9.55;96.80
69776;DHT22;57049;51.450;-2.516;2023-12-20T10:15:34;9.56;96.81
69776;DHT22;57049;51.450;-2.516;2023-12-20T10:18:01;9.60;96.93
69776;DHT22;57049;51.450;-2.516;2023-12-20T10:20:27;9.63;96.65
69776;DHT22;57049;51.450;-2.516;2023-12-20T10:22:55;9.69;96.51
69776;DHT22;57049;51.450;-2.516;2023-12-20T10:25:21;9.73;96.40
69776;DHT22;57049;51.450;-2.516;2023-12-20T10:27:47;9.76;96.54
69776;DHT22;57049;51.450;-2.516;2023-12-20T10:30:13;9.79;96.46
69776;DHT22;57049;51.450;-2.516;2023-12-20T10:32:39;9.76;96.45
69776;DHT22;57049;51.450;-2.516;2023-12-20T10:35:06;9.79;96.40
69776;DHT22;57049;51.450;-2.516;2023-12-20T10:37:35;9.82;96.16
69776;DHT22;57049;51.450;-2.516;2023-12-20T10:40:03;9.90;95.80
69776;DHT22;57049;51.450;-2.516;2023-12-20T10:42:29;9.92;95.76
69776;DHT22;57049;51.450;-2.516;2023-12-20T10:44:59;10.06;95.55
69776;DHT22;57049;51.450;-2.516;2023-12-20T10:47:28;10.11;95.37
69776;DHT22;57049;51.450;-2.516;2023-12-20T10:49:57;10.14;95.12
69776;DHT22;57049;51.450;-2.516;2023-12-20T10:52:23;10.23;94.93
69776;DHT22;57049;51.450;-2.516;2023-12-20T10:54:52;10.20;94.77
69776;DHT22;57049;51.450;-2.516;2023-12-20T10:57:21;10.21;94.61
69776;DHT22;57049;51.450;-2.516;2023-12-20T10:59:49;10.25;94.62
69776;DHT22;57049;51.450;-2.516;2023-12-20T11:02:19;10.31;94.46
69776;DHT22;57049;51.450;-2.516;2023-12-20T11:04:53;10.30;94.50
69776;DHT22;57049;51.450;-2.516;2023-12-20T11:07:29;10.40;94.31
69776;DHT22;57049;51.450;-2.516;2023-12-20T11:10:00;10.48;94.41
69776;DHT22;57049;51.450;-2.516;2023-12-20T11:12:39;10.57;94.36
69776;DHT22;57049;51.450;-2.516;2023-12-20T11:15:07;10.57;94.19
69776;DHT22;57049;51.450;-2.516;2023-12-20T11:17:33;10.54;93.96
69776;DHT22;57049;51.450;-2.516;2023-12-20T11:20:05;10.55;94.00
69776;DHT22;57049;51.450;-2.516;2023-12-20T11:22:31;10.54;94.16
69776;DHT22;57049;51.450;-2.516;2023-12-20T11:25:10;10.55;93.80
69776;DHT22;57049;51.450;-2.516;2023-12-20T11:27:41;10.45;93.98
69776;DHT22;57049;51.450;-2.516;2023-12-20T11:30:13;10.45;94.16
69776;DHT22;57049;51.450;-2.516;2023-12-20T11:32:40;10.45;94.17
69776;DHT22;57049;51.450;-2.516;2023-12-20T11:37:38;10.41;93.98
69776;DHT22;57049;51.450;-2.516;2023-12-20T11:40:15;10.47;94.02
69776;DHT22;57049;51.450;-2.516;2023-12-20T11:42:42;10.54;93.79
69776;DHT22;57049;51.450;-2.516;2023-12-20T11:45:15;10.45;93.70
69776;DHT22;57049;51.450;-2.516;2023-12-20T11:48:01;10.55;93.73
69776;DHT22;57049;51.450;-2.516;2023-12-20T11:50:58;10.60;93.70
69776;DHT22;57049;51.450;-2.516;2023-12-20T11:53:37;10.67;93.67
69776;DHT22;57049;51.450;-2.516;2023-12-20T11:56:24;10.69;93.66
69776;DHT22;57049;51.450;-2.516;2023-12-20T11:58:50;10.65;93.68
69776;DHT22;57049;51.450;-2.516;2023-12-20T12:01:21;10.74;93.83
69776;DHT22;57049;51.450;-2.516;2023-12-20T12:04:02;10.74;93.78
69776;DHT22;57049;51.450;-2.516;2023-12-20T12:06:46;10.81;93.78
69776;DHT22;57049;51.450;-2.516;2023-12-20T12:09:35;10.88;93.40
69776;DHT22;57049;51.450;-2.516;2023-12-20T12:12:12;10.81;92.87
69776;DHT22;57049;51.450;-2.516;2023-12-20T12:14:40;10.89;93.38
69776;DHT22;57049;51.450;-2.516;2023-12-20T12:17:18;10.85;93.14
69776;DHT22;57049;51.450;-2.516;2023-12-20T12:19:51;10.82;93.26
69776;DHT22;57049;51.450;-2.516;2023-12-20T12:22:29;10.91;93.48
69776;DHT22;57049;51.450;-2.516;2023-12-20T12:25:13;11.05;93.26
69776;DHT22;57049;51.450;-2.516;2023-12-20T12:27:43;10.95;93.19
69776;DHT22;57049;51.450;-2.516;2023-12-20T12:30:18;10.82;93.35
69776;DHT22;57049;51.450;-2.516;2023-12-20T12:32:56;10.89;93.48
69776;DHT22;57049;51.450;-2.516;2023-12-20T12:35:25;10.88;93.44
69776;DHT22;57049;51.450;-2.516;2023-12-20T12:37:51;10.94;93.39
69776;DHT22;57049;51.450;-2.516;2023-12-20T12:40:17;10.88;93.18
69776;DHT22;57049;51.450;-2.516;2023-12-20T12:45:32;10.95;93.66
69776;DHT22;57049;51.450;-2.516;2023-12-20T12:48:00;10.92;93.87
69776;DHT22;57049;51.450;-2.516;2023-12-20T12:50:55;10.94;94.26
69776;DHT22;57049;51.450;-2.516;2023-12-20T12:53:25;10.99;94.40
69776;DHT22;57049;51.450;-2.516;2023-12-20T12:56:01;10.91;94.61
69776;DHT22;57049;51.450;-2.516;2023-12-20T12:58:32;10.89;94.68
69776;DHT22;57049;51.450;-2.516;2023-12-20T13:01:11;10.86;94.78
69776;DHT22;57049;51.450;-2.516;2023-12-20T13:03:37;10.89;94.76
69776;DHT22;57049;51.450;-2.516;2023-12-20T13:06:03;10.86;94.95
69776;DHT22;57049;51.450;-2.516;2023-12-20T13:08:34;10.84;95.44
69776;DHT22;57049;51.450;-2.516;2023-12-20T13:11:00;10.79;95.61
69776;DHT22;57049;51.450;-2.516;2023-12-20T13:13:29;10.84;95.89
69776;DHT22;57049;51.450;-2.516;2023-12-20T13:15:55;10.88;95.75
69776;DHT22;57049;51.450;-2.516;2023-12-20T13:18:39;10.94;95.63
69776;DHT22;57049;51.450;-2.516;2023-12-20T13:21:08;10.98;95.42
69776;DHT22;57049;51.450;-2.516;2023-12-20T13:23:33;10.86;95.15
69776;DHT22;57049;51.450;-2.516;2023-12-20T13:25:59;10.82;95.75
69776;DHT22;57049;51.450;-2.516;2023-12-20T13:28:34;10.81;96.22
69776;DHT22;57049;51.450;-2.516;2023-12-20T13:31:10;10.65;97.29
69776;DHT22;57049;51.450;-2.516;2023-12-20T13:33:42;10.62;97.68
69776;DHT22;57049;51.450;-2.516;2023-12-20T13:36:10;10.60;97.43
69776;DHT22;57049;51.450;-2.516;2023-12-20T13:38:44;10.58;97.21
69776;DHT22;57049;51.450;-2.516;2023-12-20T13:41:10;10.58;97.43
69776;DHT22;57049;51.450;-2.516;2023-12-20T13:43:35;10.52;97.46
69776;DHT22;57049;51.450;-2.516;2023-12-20T13:46:04;10.44;97.45
69776;DHT22;57049;51.450;-2.516;2023-12-20T13:48:33;10.41;97.61
69776;DHT22;57049;51.450;-2.516;2023-12-20T13:50:58;10.44;97.74
69776;DHT22;57049;51.450;-2.516;2023-12-20T13:53:32;10.45;97.65
69776;DHT22;57049;51.450;-2.516;2023-12-20T13:56:00;10.45;97.72
69776;DHT22;57049;51.450;-2.516;2023-12-20T13:58:29;10.41;97.88
69776;DHT22;57049;51.450;-2.516;2023-12-20T14:00:57;10.41;98.14
69776;DHT22;57049;51.450;-2.516;2023-12-20T14:03:26;10.34;98.56
69776;DHT22;57049;51.450;-2.516;2023-12-20T14:05:52;10.36;98.59
69776;DHT22;57049;51.450;-2.516;2023-12-20T14:08:17;10.37;98.73
69776;DHT22;57049;51.450;-2.516;2023-12-20T14:14:05;10.36;98.64
69776;DHT22;57049;51.450;-2.516;2023-12-20T14:16:33;10.33;98.68
69776;DHT22;57049;51.450;-2.516;2023-12-20T14:19:01;10.30;98.58
69776;DHT22;57049;51.450;-2.516;2023-12-20T14:21:29;10.29;98.57
69776;DHT22;57049;51.450;-2.516;2023-12-20T14:23:57;10.30;98.46
69776;DHT22;57049;51.450;-2.516;2023-12-20T14:26:26;10.33;98.36
69776;DHT22;57049;51.450;-2.516;2023-12-20T14:28:53;10.36;98.31
69776;DHT22;57049;51.450;-2.516;2023-12-20T14:31:21;10.31;98.43
69776;DHT22;57049;51.450;-2.516;2023-12-20T14:37:25;10.25;98.41
69776;DHT22;57049;51.450;-2.516;2023-12-20T14:40:20;10.29;98.28
69776;DHT22;57049;51.450;-2.516;2023-12-20T14:42:46;10.27;98.27
69776;DHT22;57049;51.450;-2.516;2023-12-20T14:45:12;10.30;98.28
69776;DHT22;57049;51.450;-2.516;2023-12-20T14:48:04;10.30;98.31
69776;DHT22;57049;51.450;-2.516;2023-12-20T14:50:44;10.25;98.00
69776;DHT22;57049;51.450;-2.516;2023-12-20T14:53:26;10.27;98.03
69776;DHT22;57049;51.450;-2.516;2023-12-20T14:56:04;10.24;98.15
69776;DHT22;57049;51.450;-2.516;2023-12-20T14:58:52;10.31;97.99
69776;DHT22;57049;51.450;-2.516;2023-12-20T15:01:17;10.29;98.07
69776;DHT22;57049;51.450;-2.516;2023-12-20T15:03:48;10.27;98.11
69776;DHT22;57049;51.450;-2.516;2023-12-20T15:06:31;10.25;98.01
69776;DHT22;57049;51.450;-2.516;2023-12-20T15:09:02;10.27;97.84
69776;DHT22;57049;51.450;-2.516;2023-12-20T15:11:30;10.24;97.57
69776;DHT22;57049;51.450;-2.516;2023-12-20T15:13:56;10.21;97.47
69776;DHT22;57049;51.450;-2.516;2023-12-20T15:16:23;10.21;97.22
69776;DHT22;57049;51.450;-2.516;2023-12-20T15:18:49;10.20;97.19
69776;DHT22;57049;51.450;-2.516;2023-12-20T15:21:24;10.18;96.98
69776;DHT22;57049;51.450;-2.516;2023-12-20T15:24:00;10.23;97.14
69776;DHT22;57049;51.450;-2.516;2023-12-20T15:26:45;10.17;97.20
69776;DHT22;57049;51.450;-2.516;2023-12-20T15:29:15;10.23;97.21
69776;DHT22;57049;51.450;-2.516;2023-12-20T15:31:47;10.18;97.44
69776;DHT22;57049;51.450;-2.516;2023-12-20T15:34:20;10.20;97.48
69776;DHT22;57049;51.450;-2.516;2023-12-20T15:36:49;10.17;97.45
69776;DHT22;57049;51.450;-2.516;2023-12-20T15:39:15;10.14;97.40
69776;DHT22;57049;51.450;-2.516;2023-12-20T15:41:41;10.14;97.43
69776;DHT22;57049;51.450;-2.516;2023-12-20T15:44:07;10.11;97.59
69776;DHT22;57049;51.450;-2.516;2023-12-20T15:46:35;10.04;97.52
69776;DHT22;57049;51.450;-2.516;2023-12-20T15:49:01;10.06;97.59